Time;durP1;ratioP1;P1;durP2;ratioP2;P2;SDS_P1;SDS_P2;PMS_P1;PMS_P2;Temp;Humidity;BMP_temperature;BMP_pressure;BME280_temperature;BME280_humidity;BME280_pressure;Samples;Min_cycle;Max_cycle;Signal;HPM_P1;HPM_P2
2023/09/13 00:02:10;;;;;;;;;26.75;24.00;;;;;21.65;76.05;101198.56;5042864;28;45327;-39
2023/09/13 00:04:35;;;;;;;;;24.25;22.50;;;;;21.58;76.00;101195.88;5041150;28;46375;-38
2023/09/13 00:07:00;;;;;;;;;27.50;23.75;;;;;21.60;76.54;101199.19;5041987;28;45375;-39
2023/09/13 00:09:26;;;;;;;;;24.50;22.50;;;;;21.57;76.89;101194.19;5041869;28;45302;-39
2023/09/13 00:11:51;;;;;;;;;28.00;21.00;;;;;21.56;76.54;101191.69;5042572;28;45444;-39
2023/09/13 00:14:16;;;;;;;;;28.25;23.50;;;;;21.56;76.67;101191.69;5041818;28;45476;-41
2023/09/13 00:16:42;;;;;;;;;28.75;26.00;;;;;21.56;77.03;101194.41;5042046;28;45181;-42
2023/09/13 00:19:07;;;;;;;;;27.50;23.00;;;;;21.51;77.09;101189.63;5042001;28;45351;-38
2023/09/13 00:21:33;;;;;;;;;23.50;18.25;;;;;21.52;77.02;101194.00;5042211;28;45366;-39
2023/09/13 00:23:58;;;;;;;;;26.75;22.75;;;;;21.52;76.95;101204.81;5041679;28;47018;-39
2023/09/13 00:26:24;;;;;;;;;25.25;23.25;;;;;21.51;77.53;101205.03;5042004;28;45295;-35
2023/09/13 00:28:50;;;;;;;;;26.50;21.75;;;;;21.53;76.97;101201.09;5041069;28;45631;-39
2023/09/13 00:31:15;;;;;;;;;22.75;19.00;;;;;21.53;76.82;101197.53;5042084;28;45755;-38
2023/09/13 00:33:41;;;;;;;;;25.00;18.75;;;;;21.40;76.94;101171.28;5041598;28;45272;-42
2023/09/13 00:36:06;;;;;;;;;22.00;18.75;;;;;21.57;76.87;101198.78;5041527;28;45450;-38
2023/09/13 00:38:31;;;;;;;;;30.00;20.25;;;;;21.55;76.86;101198.16;5039875;28;45393;-40
2023/09/13 00:40:57;;;;;;;;;19.50;19.25;;;;;21.52;76.30;101204.81;5038730;28;45448;-39
2023/09/13 00:43:22;;;;;;;;;20.00;19.00;;;;;21.50;76.44;101203.38;5038194;28;45367;-38
2023/09/13 00:45:50;;;;;;;;;23.50;18.50;;;;;21.46;76.50;101205.66;5036808;28;45883;-35
2023/09/13 00:48:17;;;;;;;;;21.75;19.25;;;;;21.02;76.78;101141.25;5037522;28;45563;-39
2023/09/13 00:50:45;;;;;;;;;22.50;19.50;;;;;21.36;76.85;101202.50;5037711;28;45463;-39
2023/09/13 00:53:11;;;;;;;;;24.25;20.50;;;;;21.32;77.14;101207.53;5037550;28;45370;-37
2023/09/13 00:55:38;;;;;;;;;28.50;22.00;;;;;21.26;77.13;101204.78;5038258;28;45508;-38
2023/09/13 00:58:05;;;;;;;;;22.25;19.25;;;;;21.15;76.96;101185.41;5038270;28;45730;-37
2023/09/13 01:00:32;;;;;;;;;21.75;18.75;;;;;21.17;77.03;101198.72;5038450;28;45285;-43
2023/09/13 01:02:58;;;;;;;;;23.75;22.25;;;;;21.29;76.97;101209.78;5037872;28;47074;-37
2023/09/13 01:05:24;;;;;;;;;22.00;18.25;;;;;21.19;77.16;101199.34;5038026;28;45309;-39
2023/09/13 01:07:49;;;;;;;;;19.25;17.50;;;;;21.21;77.08;101204.56;5037267;28;45421;-39
2023/09/13 01:10:15;;;;;;;;;27.25;23.25;;;;;21.12;77.52;101193.94;5038145;28;45378;-38
2023/09/13 01:12:40;;;;;;;;;24.00;20.25;;;;;21.11;77.82;101197.69;5038120;28;46231;-39
2023/09/13 01:15:07;;;;;;;;;17.75;17.00;;;;;21.07;77.98;101199.13;5037834;28;45425;-40
2023/09/13 01:17:52;;;;;;;;;17.25;15.75;;;;;20.99;77.41;101201.19;5037754;28;45315;-38
2023/09/13 01:21:05;;;;;;;;;22.00;18.00;;;;;20.97;77.53;101204.06;5038378;28;45433;-37
2023/09/13 01:23:41;;;;;;;;;19.50;19.50;;;;;20.95;78.04;101205.34;4956422;28;46374;-40
2023/09/13 01:26:42;;;;;;;;;21.75;16.75;;;;;20.90;77.99;101211.34;4956556;28;45412;-39
2023/09/13 01:29:14;;;;;;;;;18.50;18.00;;;;;20.83;77.71;101203.22;4956586;28;45566;-39
2023/09/13 01:31:40;;;;;;;;;16.75;16.00;;;;;20.86;77.80;101210.09;4956857;28;45571;-39
2023/09/13 01:34:06;;;;;;;;;19.00;18.50;;;;;20.84;78.24;101204.88;4956236;28;45434;-38
2023/09/13 01:36:31;;;;;;;;;23.00;18.25;;;;;20.84;78.01;101209.44;4956603;28;45370;-38
2023/09/13 01:38:56;;;;;;;;;17.50;16.75;;;;;20.82;78.03;101209.66;4956687;28;45366;-39
2023/09/13 01:41:33;;;;;;;;;19.50;19.25;;;;;20.79;78.34;101220.03;4956733;28;45509;-39
2023/09/13 01:43:58;;;;;;;;;24.00;18.25;;;;;20.74;78.51;101209.00;4956319;28;47621;-38
2023/09/13 01:46:31;;;;;;;;;20.00;17.50;;;;;20.71;78.52;101218.34;4956514;28;45330;-39
2023/09/13 01:48:57;;;;;;;;;21.25;18.50;;;;;20.74;78.81;101227.94;4956334;28;45450;-42
2023/09/13 01:51:25;;;;;;;;;21.25;20.00;;;;;20.70;78.94;101232.06;4955331;28;45408;-41
2023/09/13 01:53:50;;;;;;;;;23.00;19.00;;;;;20.65;79.18;101235.38;4955718;28;45497;-37
2023/09/13 01:56:21;;;;;;;;;21.00;18.00;;;;;20.63;79.12;101240.97;4956237;28;45462;-39
2023/09/13 01:58:46;;;;;;;;;19.50;17.75;;;;;20.53;79.13;101213.50;4956383;28;45429;-39
2023/09/13 02:01:12;;;;;;;;;17.25;16.75;;;;;20.61;79.01;101240.34;5027162;28;45354;-39
2023/09/13 02:03:37;;;;;;;;;18.00;14.50;;;;;20.61;78.83;101243.06;5037101;28;47080;-38
2023/09/13 02:06:02;;;;;;;;;23.25;19.00;;;;;20.59;78.96;101245.09;5037199;28;45438;-38
2023/09/13 02:08:28;;;;;;;;;21.50;18.50;;;;;20.58;79.19;101248.84;5037092;28;45274;-37
2023/09/13 02:10:53;;;;;;;;;14.75;13.25;;;;;20.53;79.04;101235.13;5037362;28;45261;-41
2023/09/13 02:13:18;;;;;;;;;15.25;15.25;;;;;20.55;79.12;101234.91;5018951;28;46531;-41
2023/09/13 02:15:44;;;;;;;;;18.00;16.50;;;;;20.65;79.66;101248.91;5036036;28;45322;-39
2023/09/13 02:18:09;;;;;;;;;21.50;18.00;;;;;20.72;79.60;101254.31;5037107;28;45374;-40
2023/09/13 02:20:34;;;;;;;;;19.25;17.50;;;;;20.75;79.38;101238.53;5037087;28;45337;-39
2023/09/13 02:23:00;;;;;;;;;20.75;20.50;;;;;20.79;79.03;101245.22;5036760;28;46277;-38
2023/09/13 02:25:25;;;;;;;;;21.25;16.75;;;;;20.80;79.20;101249.56;5036905;28;45256;-37
2023/09/13 02:27:51;;;;;;;;;21.00;17.33;;;;;20.81;78.52;101253.09;5036944;28;45416;-37
2023/09/13 02:30:16;;;;;;;;;15.00;13.50;;;;;20.81;78.95;101250.41;5036980;28;45393;-38
2023/09/13 02:32:41;;;;;;;;;23.75;18.00;;;;;20.79;78.75;101256.03;5036475;28;51260;-39
2023/09/13 02:35:08;;;;;;;;;21.00;17.75;;;;;20.80;79.33;101252.28;5036239;28;45429;-38
2023/09/13 02:37:33;;;;;;;;;21.00;18.25;;;;;20.81;79.25;101258.53;5036655;28;45493;-39
2023/09/13 02:39:59;;;;;;;;;20.00;19.00;;;;;20.80;79.20;101263.09;5036830;28;45314;-38
2023/09/13 02:42:24;;;;;;;;;19.50;16.00;;;;;20.82;78.87;101265.63;5036602;28;46047;-38
2023/09/13 02:44:50;;;;;;;;;20.00;19.75;;;;;20.83;78.86;101262.69;5036401;28;45783;-38
2023/09/13 02:47:16;;;;;;;;;19.25;17.50;;;;;20.85;78.47;101263.31;5036584;28;45272;-38
2023/09/13 02:49:41;;;;;;;;;16.75;15.50;;;;;20.91;78.58;101275.22;5036559;28;45253;-38
2023/09/13 02:52:07;;;;;;;;;21.50;19.25;;;;;20.92;78.59;101271.47;5036075;28;46068;-40
2023/09/13 02:54:32;;;;;;;;;23.25;20.00;;;;;20.93;78.59;101263.16;5036399;28;45271;-41
2023/09/13 02:56:57;;;;;;;;;19.00;19.00;;;;;20.96;78.15;101270.03;5036392;28;45386;-39
2023/09/13 02:59:24;;;;;;;;;22.75;18.00;;;;;20.99;78.11;101272.34;5036672;28;45353;-40
2023/09/13 03:01:50;;;;;;;;;19.75;18.00;;;;;21.00;78.12;101273.16;5035621;28;47213;-39
2023/09/13 03:04:16;;;;;;;;;22.25;21.50;;;;;21.00;78.38;101274.00;5036534;28;45861;-39
2023/09/13 03:06:41;;;;;;;;;19.75;15.25;;;;;20.98;78.17;101270.66;5036300;28;45338;-39
2023/09/13 03:09:07;;;;;;;;;23.25;18.00;;;;;21.05;78.11;101279.63;5036582;28;45494;-38
2023/09/13 03:11:35;;;;;;;;;23.25;20.50;;;;;21.02;77.58;101271.91;5035984;28;46346;-38
2023/09/13 03:14:01;;;;;;;;;19.25;15.00;;;;;21.00;78.00;101267.75;5036330;28;45441;-39
2023/09/13 03:16:27;;;;;;;;;17.75;16.50;;;;;21.03;77.69;101273.59;5035031;28;45445;-38
2023/09/13 03:18:55;;;;;;;;;18.75;13.25;;;;;21.04;77.02;101275.25;5035829;28;45255;-39
2023/09/13 03:21:20;;;;;;;;;20.50;16.00;;;;;21.01;77.19;101267.53;5035958;28;46205;-40
2023/09/13 03:23:50;;;;;;;;;22.25;15.00;;;;;20.97;76.95;101279.81;5036076;28;45447;-39
2023/09/13 03:26:21;;;;;;;;;18.00;16.75;;;;;20.86;76.83;101261.47;5036150;28;45322;-39
2023/09/13 03:28:56;;;;;;;;;12.00;12.00;;;;;20.83;77.24;101267.28;5036277;28;45164;-40
2023/09/13 03:31:23;;;;;;;;;14.25;12.00;;;;;20.82;77.42;101271.03;5035843;28;45192;-39
2023/09/13 03:33:51;;;;;;;;;16.75;13.75;;;;;20.82;77.19;101273.72;5034244;28;45423;-39
2023/09/13 03:36:17;;;;;;;;;16.50;15.25;;;;;20.78;76.69;101273.28;5036207;28;45429;-38
2023/09/13 03:38:44;;;;;;;;;11.00;11.00;;;;;20.75;76.29;101272.84;5036032;28;45332;-37
2023/09/13 03:41:14;;;;;;;;;14.50;11.25;;;;;20.74;76.20;101279.31;5035695;28;47088;-40
2023/09/13 03:43:40;;;;;;;;;13.75;12.75;;;;;20.68;75.85;101270.94;5017817;28;45505;-38
2023/09/13 03:46:06;;;;;;;;;16.75;12.75;;;;;20.66;75.66;101269.50;5035793;28;45362;-38
2023/09/13 03:48:32;;;;;;;;;11.25;10.00;;;;;20.66;76.01;101273.03;5036079;28;45464;-40
2023/09/13 03:50:58;;;;;;;;;12.25;12.00;;;;;20.65;75.81;101265.94;5035644;28;45422;-37
2023/09/13 03:53:24;;;;;;;;;10.50;8.25;;;;;20.64;76.02;101266.13;5034609;28;45340;-39
2023/09/13 03:55:50;;;;;;;;;12.75;10.75;;;;;20.61;76.13;101263.84;5035689;28;45346;-37
2023/09/13 03:58:15;;;;;;;;;13.50;9.00;;;;;20.61;76.32;101258.44;5035440;28;45624;-38
2023/09/13 04:00:41;;;;;;;;;8.25;8.00;;;;;20.61;75.59;101261.16;5035345;28;47166;-39
2023/09/13 04:03:06;;;;;;;;;12.50;9.50;;;;;20.61;75.84;101259.28;5035347;28;45883;-39
2023/09/13 04:05:32;;;;;;;;;12.25;9.50;;;;;20.70;75.62;101261.81;5035698;28;45436;-39
2023/09/13 04:07:58;;;;;;;;;8.75;8.75;;;;;20.70;75.78;101268.06;5035763;28;45485;-36
2023/09/13 04:10:23;;;;;;;;;13.00;11.00;;;;;20.71;75.45;101271.59;5035525;28;47092;-40
2023/09/13 04:12:49;;;;;;;;;9.50;9.00;;;;;20.60;75.43;101262.16;5035638;28;45398;-41
2023/09/13 04:15:15;;;;;;;;;11.50;10.50;;;;;20.74;75.03;101279.31;5038615;28;45368;-38
2023/09/13 04:17:41;;;;;;;;;9.25;9.25;;;;;20.75;75.19;101273.69;5039024;28;45373;-39
2023/09/13 04:20:07;;;;;;;;;9.00;9.00;;;;;20.73;75.32;101269.50;5038740;28;48226;-39
2023/09/13 04:22:32;;;;;;;;;9.75;8.75;;;;;20.67;75.05;101261.16;5038869;28;45442;-39
2023/09/13 04:24:58;;;;;;;;;10.00;10.00;;;;;20.65;75.66;101268.66;5038983;28;45230;-37
2023/09/13 04:27:23;;;;;;;;;9.25;8.00;;;;;20.60;75.82;101262.16;5037953;28;45553;-39
2023/09/13 04:29:49;;;;;;;;;12.00;10.00;;;;;20.56;75.89;101255.47;5038613;28;46999;-39
2023/09/13 04:32:14;;;;;;;;;11.50;10.25;;;;;20.58;75.83;101267.78;5038805;28;45313;-37
2023/09/13 04:34:40;;;;;;;;;11.00;11.00;;;;;20.56;75.53;101269.00;5038402;28;45543;-39
2023/09/13 04:37:06;;;;;;;;;10.00;7.75;;;;;20.45;75.33;101254.16;5038913;28;45418;-39
2023/09/13 04:39:31;;;;;;;;;10.50;9.00;;;;;20.51;75.38;101266.91;5038504;28;47379;-39
2023/09/13 04:41:58;;;;;;;;;65.33;48.33;;;;;20.53;75.41;101272.97;5038221;28;45338;-39
2023/09/13 04:44:24;;;;;;;;;34.67;30.33;;;;;20.55;75.34;101278.16;5038855;28;45391;-38
2023/09/13 04:46:50;;;;;;;;;12.75;12.00;;;;;20.56;75.30;101279.81;5038474;28;45539;-39
2023/09/13 04:49:15;;;;;;;;;11.50;11.00;;;;;20.57;75.19;101284.22;5038462;28;45299;-40
2023/09/13 04:51:41;;;;;;;;;11.50;10.75;;;;;20.60;75.42;101281.09;5038324;28;45430;-41
2023/09/13 04:54:06;;;;;;;;;9.25;9.25;;;;;20.61;75.35;101286.31;5038771;28;45996;-37
2023/09/13 04:56:31;;;;;;;;;10.00;10.00;;;;;20.63;75.61;101288.81;5038540;28;45283;-41
2023/09/13 04:58:57;;;;;;;;;9.50;8.00;;;;;20.64;75.68;101279.66;5038142;28;48488;-44
2023/09/13 05:01:22;;;;;;;;;13.00;12.25;;;;;20.66;75.67;101285.72;5038192;28;45238;-40
2023/09/13 05:03:48;;;;;;;;;8.25;5.75;;;;;20.66;74.60;101289.25;5038014;28;45199;-39
2023/09/13 05:06:13;;;;;;;;;8.75;6.75;;;;;20.61;74.22;101280.91;5037054;28;45464;-39
2023/09/13 05:08:39;;;;;;;;;10.75;7.00;;;;;20.58;74.55;101275.88;5037728;28;46102;-39
2023/09/13 05:11:04;;;;;;;;;10.75;8.25;;;;;20.61;74.21;101288.19;5037972;28;45587;-37
2023/09/13 05:13:31;;;;;;;;;10.25;9.00;;;;;20.58;74.25;101280.47;5036754;28;45270;-38
2023/09/13 05:15:58;;;;;;;;;9.25;8.00;;;;;20.58;73.79;101285.88;5038316;28;45161;-39
2023/09/13 05:18:23;;;;;;;;;8.75;8.75;;;;;20.59;74.12;101293.75;5037905;28;46346;-38
2023/09/13 05:20:48;;;;;;;;;10.00;9.00;;;;;20.60;74.42;101305.41;5037887;28;45420;-39
2023/09/13 05:23:14;;;;;;;;;8.00;8.00;;;;;20.53;74.10;101293.75;5038065;28;45381;-40
2023/09/13 05:25:43;;;;;;;;;11.25;10.75;;;;;20.58;73.71;101311.03;5037608;28;45472;-37
2023/09/13 05:28:09;;;;;;;;;9.50;8.75;;;;;20.55;74.01;101316.81;5037664;28;45309;-37
2023/09/13 05:30:34;;;;;;;;;11.75;11.00;;;;;20.59;73.57;101319.97;5037486;28;45334;-38
2023/09/13 05:33:00;;;;;;;;;12.75;9.50;;;;;20.59;73.98;101315.38;5037571;28;45879;-39
2023/09/13 05:35:29;;;;;;;;;11.00;10.00;;;;;20.60;73.99;101322.47;5037776;28;45359;-42
2023/09/13 05:37:55;;;;;;;;;9.75;9.75;;;;;20.61;74.03;101324.16;5037384;28;46119;-39
2023/09/13 05:40:20;;;;;;;;;10.25;10.25;;;;;20.62;74.29;101333.94;5037128;28;54419;-39
2023/09/13 05:42:45;;;;;;;;;12.25;9.25;;;;;20.63;74.07;101332.06;5037168;28;45415;-40
2023/09/13 05:45:10;;;;;;;;;12.00;10.00;;;;;20.62;73.81;101336.63;5037705;28;45469;-37
2023/09/13 05:47:36;;;;;;;;;12.25;9.25;;;;;20.61;73.72;101334.13;5037082;28;45400;-40
2023/09/13 05:50:01;;;;;;;;;16.00;12.25;;;;;20.64;73.07;101333.72;5037203;28;45428;-37
2023/09/13 05:52:26;;;;;;;;;14.50;12.00;;;;;20.60;73.94;101325.16;5036759;28;45362;-40
2023/09/13 05:54:52;;;;;;;;;12.00;8.25;;;;;20.68;73.58;101335.81;5037555;28;45353;-41
2023/09/13 05:57:17;;;;;;;;;12.25;11.25;;;;;20.70;73.49;101338.34;5035958;28;46147;-41
2023/09/13 05:59:42;;;;;;;;;9.75;9.25;;;;;20.71;73.21;101347.28;5036891;28;45328;-40
2023/09/13 06:02:08;;;;;;;;;10.75;9.50;;;;;20.72;73.18;101340.84;5037300;28;45317;-39
2023/09/13 06:04:33;;;;;;;;;14.75;11.00;;;;;20.74;73.09;101352.31;5037298;28;45461;-40
2023/09/13 06:06:58;;;;;;;;;14.75;12.25;;;;;20.78;73.14;101351.72;5036873;28;52096;-43
2023/09/13 06:09:24;;;;;;;;;10.50;8.25;;;;;20.82;73.11;101357.56;5037196;28;45481;-43
2023/09/13 06:11:49;;;;;;;;;9.50;9.00;;;;;20.80;72.50;101346.91;5037101;28;45639;-54
2023/09/13 06:14:16;;;;;;;;;13.75;9.50;;;;;20.90;72.66;101354.69;5037445;28;45396;-49
2023/09/13 06:16:42;;;;;;;;;12.25;11.75;;;;;20.97;72.03;101362.81;5036688;28;46248;-44
2023/09/13 06:19:07;;;;;;;;;6.50;6.00;;;;;20.98;72.17;101349.09;5037173;28;45747;-53
2023/09/13 06:21:32;;;;;;;;;11.75;10.00;;;;;21.07;71.68;101369.56;5037256;28;45380;-51
2023/09/13 06:23:58;;;;;;;;;10.25;9.00;;;;;21.12;72.00;101358.94;5037119;28;45361;-52
2023/09/13 06:26:23;;;;;;;;;15.25;11.75;;;;;21.24;71.31;101361.06;5037083;28;47042;-55
2023/09/13 06:28:49;;;;;;;;;14.50;11.00;;;;;21.25;71.55;101350.06;5035984;28;45426;-48
2023/09/13 06:31:15;;;;;;;;;12.00;10.00;;;;;21.34;70.94;101353.44;5036920;28;45725;-41
2023/09/13 06:33:40;;;;;;;;;12.00;12.00;;;;;21.46;70.67;101361.81;5036843;28;45421;-49
2023/09/13 06:36:06;;;;;;;;;13.25;9.50;;;;;21.51;70.78;101359.34;5035813;28;46071;-40
2023/09/13 06:38:31;;;;;;;;;12.50;11.25;;;;;21.55;70.56;101374.97;5036495;28;45426;-44
2023/09/13 06:40:57;;;;;;;;;16.25;10.25;;;;;21.57;69.98;101372.88;5036705;28;45324;-39
2023/09/13 06:43:22;;;;;;;;;30.75;26.50;;;;;21.60;70.26;101369.75;5036846;28;45334;-40
2023/09/13 06:45:48;;;;;;;;;44.00;33.67;;;;;21.62;69.75;101377.69;5036246;28;51035;-42
2023/09/13 06:48:14;;;;;;;;;28.75;26.00;;;;;21.64;69.79;101381.84;5036416;28;45249;-42
2023/09/13 06:50:39;;;;;;;;;14.25;14.00;;;;;21.64;69.58;101373.72;5036492;28;45288;-37
2023/09/13 06:53:05;;;;;;;;;14.25;13.00;;;;;21.68;69.55;101379.59;5036557;28;45335;-40
2023/09/13 06:55:32;;;;;;;;;11.50;11.25;;;;;21.67;69.65;101376.03;5036193;28;46326;-48
2023/09/13 06:57:57;;;;;;;;;14.00;12.60;;;;;21.69;69.61;101373.13;5036489;28;45355;-39
2023/09/13 07:00:22;;;;;;;;;11.75;10.00;;;;;21.70;69.66;101377.50;5036479;28;45720;-37
2023/09/13 07:02:48;;;;;;;;;12.25;9.25;;;;;21.71;69.72;101376.47;5036475;28;46359;-38
2023/09/13 07:05:13;;;;;;;;;13.50;10.00;;;;;21.67;69.50;101367.91;5034822;28;49214;-53
2023/09/13 07:07:38;;;;;;;;;13.00;10.75;;;;;21.68;69.52;101368.75;5035906;28;45395;-47
2023/09/13 07:10:04;;;;;;;;;14.50;13.75;;;;;21.77;69.46;101383.75;5036337;28;45247;-37
2023/09/13 07:12:29;;;;;;;;;11.75;10.50;;;;;21.85;69.25;101382.75;5036299;28;45439;-51
2023/09/13 07:14:55;;;;;;;;;14.00;12.00;;;;;21.91;69.18;101387.31;5036129;28;45361;-51
2023/09/13 07:17:20;;;;;;;;;16.75;13.75;;;;;21.88;68.99;101374.22;5035828;28;45332;-43
2023/09/13 07:19:45;;;;;;;;;15.00;11.00;;;;;21.97;68.94;101389.22;5036010;28;45390;-39
2023/09/13 07:22:11;;;;;;;;;15.00;12.50;;;;;21.89;68.63;101376.72;5036518;28;45421;-37
2023/09/13 07:24:36;;;;;;;;;12.50;12.25;;;;;21.99;68.64;101391.72;5035825;28;46964;-50
2023/09/13 07:27:01;;;;;;;;;13.25;11.75;;;;;21.97;68.47;101393.81;5036197;28;45412;-55
2023/09/13 07:29:27;;;;;;;;;15.75;11.00;;;;;21.96;68.37;101403.81;5036205;28;46003;-39
2023/09/13 07:31:52;;;;;;;;;12.25;11.00;;;;;21.98;68.29;101398.19;5036477;28;45428;-40
2023/09/13 07:34:18;;;;;;;;;14.50;12.00;;;;;22.02;68.34;101402.16;5035760;28;45458;-39
2023/09/13 07:36:43;;;;;;;;;14.00;12.75;;;;;22.01;68.25;101406.75;5036087;28;45334;-40
2023/09/13 07:39:10;;;;;;;;;14.00;11.75;;;;;22.05;67.88;101408.00;5036090;28;45292;-39
2023/09/13 07:41:35;;;;;;;;;15.50;11.00;;;;;22.11;67.73;101409.88;5036148;28;45381;-42
2023/09/13 07:44:00;;;;;;;;;13.50;11.50;;;;;22.12;67.54;101413.41;5035731;28;46207;-42
2023/09/13 07:46:26;;;;;;;;;12.00;11.25;;;;;22.08;67.63;101414.84;5034542;28;45820;-44
2023/09/13 07:48:51;;;;;;;;;19.25;13.50;;;;;22.10;67.33;101421.75;5038281;28;45331;-45
2023/09/13 07:51:16;;;;;;;;;13.00;10.75;;;;;22.09;67.02;101427.38;5039652;28;45355;-44
2023/09/13 07:53:42;;;;;;;;;16.00;12.75;;;;;22.11;67.03;101428.84;5039139;28;46095;-39
2023/09/13 07:56:07;;;;;;;;;17.75;14.50;;;;;22.08;67.04;101428.41;5039280;28;45342;-41
2023/09/13 07:58:33;;;;;;;;;30.75;27.75;;;;;21.95;67.20;101412.13;5039238;28;45416;-37
2023/09/13 08:00:58;;;;;;;;;27.00;22.50;;;;;22.00;67.10;101426.75;5039312;28;45509;-39
2023/09/13 08:03:24;;;;;;;;;33.25;28.25;;;;;22.07;67.25;101433.00;5038841;28;46106;-39
2023/09/13 08:05:50;;;;;;;;;28.25;20.00;;;;;22.09;66.68;101443.66;5039188;28;45386;-41
2023/09/13 08:08:22;;;;;;;;;19.00;17.50;;;;;22.10;66.72;101445.31;5039113;28;45872;-38
2023/09/13 08:10:52;;;;;;;;;21.75;19.50;;;;;22.09;67.00;101447.19;5039339;28;45761;-43
2023/09/13 08:13:21;;;;;;;;;25.00;21.25;;;;;22.06;66.66;101442.16;5038894;28;45433;-43
2023/09/13 08:15:47;;;;;;;;;23.00;17.25;;;;;22.03;66.59;101448.00;5038546;28;45216;-36
2023/09/13 08:18:12;;;;;;;;;23.25;17.75;;;;;22.04;66.83;101455.09;5038895;28;45178;-37
2023/09/13 08:20:37;;;;;;;;;22.25;17.75;;;;;22.11;66.81;101455.94;5038668;28;45230;-43
2023/09/13 08:23:03;;;;;;;;;18.50;15.50;;;;;22.17;66.67;101449.75;5038852;28;45331;-54
2023/09/13 08:25:28;;;;;;;;;20.75;19.75;;;;;22.26;66.60;101463.94;5038564;28;45411;-39
2023/09/13 08:27:53;;;;;;;;;21.00;17.25;;;;;22.33;66.34;101463.91;5038714;28;45397;-47
2023/09/13 08:30:18;;;;;;;;;16.25;15.50;;;;;22.39;66.38;101463.09;5038865;28;45293;-42
2023/09/13 08:32:44;;;;;;;;;19.00;15.00;;;;;22.48;66.09;101469.16;5037558;28;46321;-41
2023/09/13 08:35:09;;;;;;;;;14.75;11.75;;;;;22.47;65.91;101473.75;5038397;28;45294;-41
2023/09/13 08:37:35;;;;;;;;;16.25;16.25;;;;;22.46;65.85;101480.22;5038579;28;45251;-41
2023/09/13 08:40:00;;;;;;;;;17.00;15.50;;;;;22.49;65.45;101489.78;5038654;28;45372;-38
2023/09/13 08:42:30;;;;;;;;;14.25;12.50;;;;;22.60;65.42;101492.72;5038327;28;45323;-40
2023/09/13 08:44:57;;;;;;;;;12.80;12.80;;;;;22.67;65.06;101499.00;5038445;28;45469;-52
2023/09/13 08:47:26;;;;;;;;;17.00;14.75;;;;;22.74;65.08;101496.28;5038853;28;45638;-39
2023/09/13 08:49:53;;;;;;;;;16.75;13.25;;;;;22.81;64.28;101504.41;5038367;28;45568;-39
2023/09/13 08:52:19;;;;;;;;;15.00;13.75;;;;;22.80;64.52;101481.06;5038116;28;47059;-39
2023/09/13 08:54:46;;;;;;;;;18.60;16.20;;;;;23.03;63.48;101507.78;5038443;28;45320;-38
2023/09/13 08:57:12;;;;;;;;;16.20;12.60;;;;;23.08;63.64;101508.81;5038587;28;45212;-44
2023/09/13 08:59:37;;;;;;;;;77.33;49.33;;;;;23.27;63.06;101507.13;5038057;28;45210;-39
2023/09/13 09:02:04;;;;;;;;;44.25;28.25;;;;;23.61;62.16;101500.53;5037281;28;46231;-40
2023/09/13 09:04:30;;;;;;;;;84.00;51.33;;;;;23.96;61.31;101507.53;5038083;28;45553;-37
2023/09/13 09:06:57;;;;;;;;;66.25;33.50;;;;;24.13;60.89;101511.41;5038403;28;45416;-39
2023/09/13 09:09:28;;;;;;;;;273.00;139.00;;;;;24.27;60.17;101512.16;5038284;28;46002;-38
2023/09/13 09:11:57;;;;;;;;;95.67;54.00;;;;;24.26;59.80;101511.31;5037912;28;46158;-39
2023/09/13 09:14:26;;;;;;;;;61.25;35.50;;;;;24.24;60.19;101513.44;5037757;28;45967;-39
2023/09/13 09:16:54;;;;;;;;;137.00;63.33;;;;;24.32;59.46;101507.75;5038247;28;45406;-41
2023/09/13 09:19:20;;;;;;;;;83.33;50.67;;;;;24.27;59.79;101504.84;5037921;28;45372;-41
2023/09/13 09:21:46;;;;;;;;;51.75;30.00;;;;;24.29;59.55;101515.50;5037991;28;46259;-39
2023/09/13 09:24:11;;;;;;;;;51.75;30.75;;;;;24.09;59.47;101497.41;5037612;28;45413;-39
2023/09/13 09:26:37;;;;;;;;;74.00;46.67;;;;;24.21;59.86;101521.19;5037286;28;45418;-39
2023/09/13 09:29:20;;;;;;;;;90.33;50.67;;;;;24.12;60.59;101523.34;5038138;28;45354;-38
2023/09/13 09:31:46;;;;;;;;;162.33;82.67;;;;;24.12;60.26;101528.78;5037524;28;46323;-41
2023/09/13 09:34:14;;;;;;;;;177.00;92.50;;;;;24.06;60.20;101527.75;5037077;28;45419;-37
2023/09/13 09:36:41;;;;;;;;;216.25;124.00;;;;;23.98;60.29;101524.47;5037704;28;45366;-39
2023/09/13 09:39:06;;;;;;;;;126.67;67.33;;;;;23.89;60.43;101521.13;5037625;28;45306;-39
2023/09/13 09:41:36;;;;;;;;;116.67;65.33;;;;;23.86;60.28;101527.03;5037336;28;46418;-40
2023/09/13 09:44:03;;;;;;;;;243.00;140.75;;;;;23.76;60.44;101526.63;5037593;28;45449;-41
2023/09/13 09:46:30;;;;;;;;;358.00;203.67;;;;;23.69;61.08;101533.97;5037509;28;45297;-39
2023/09/13 09:48:55;;;;;;;;;207.50;115.50;;;;;23.65;61.09;101533.56;5037729;28;45427;-39
2023/09/13 09:51:21;;;;;;;;;291.50;143.00;;;;;23.58;61.45;101530.84;5036932;28;45883;-39
2023/09/13 09:53:47;;;;;;;;;212.75;119.00;;;;;23.46;61.21;101529.81;5037067;28;45233;-44
2023/09/13 09:56:14;;;;;;;;;93.00;57.00;;;;;23.35;61.46;101544.91;5037296;28;45386;-40
2023/09/13 09:58:41;;;;;;;;;76.00;50.67;;;;;23.21;62.11;101543.22;5037220;28;45397;-40
2023/09/13 10:01:06;;;;;;;;;164.75;92.00;;;;;23.12;62.68;101552.63;5036150;28;45484;-40
2023/09/13 10:03:33;;;;;;;;;474.00;233.33;;;;;23.10;63.13;101542.00;5036644;28;45467;-43
2023/09/13 10:06:08;;;;;;;;;439.00;224.67;;;;;23.11;63.18;101549.09;5035783;28;45397;-39
2023/09/13 10:08:44;;;;;;;;;98.33;61.33;;;;;23.20;63.02;101546.16;5037201;28;45329;-45
2023/09/13 10:11:12;;;;;;;;;169.75;90.75;;;;;23.31;62.32;101551.78;5034660;28;46316;-41
2023/09/13 10:13:38;;;;;;;;;56.67;37.00;;;;;23.37;61.90;101550.09;5036672;28;45446;-41
2023/09/13 10:16:08;;;;;;;;;33.25;27.50;;;;;23.39;61.87;101554.28;5037066;28;45555;-37
2023/09/13 10:18:43;;;;;;;;;33.75;22.50;;;;;23.39;61.48;101550.75;5036623;28;45373;-38
2023/09/13 10:21:10;;;;;;;;;37.00;28.00;;;;;23.31;61.42;101526.53;5036525;28;47191;-39
2023/09/13 10:23:41;;;;;;;;;23.60;19.40;;;;;23.69;61.11;101555.72;5036475;28;45361;-38
2023/09/13 10:26:09;;;;;;;;;33.25;21.50;;;;;24.17;60.59;101549.88;5036808;28;45326;-39
2023/09/13 10:28:37;;;;;;;;;32.25;26.75;;;;;24.75;58.86;101550.56;5036667;28;45377;-37
2023/09/13 10:31:07;;;;;;;;;46.25;37.50;;;;;25.18;57.04;101544.38;5034973;28;47958;-40
2023/09/13 10:33:35;;;;;;;;;79.00;67.67;;;;;25.63;56.37;101547.66;5036436;28;45577;-39
2023/09/13 10:36:05;;;;;;;;;49.75;39.00;;;;;25.98;56.03;101559.88;5036162;28;45558;-40
2023/09/13 10:38:46;;;;;;;;;24.75;22.00;;;;;26.26;54.28;101551.09;5036623;28;45422;-39
2023/09/13 10:41:17;;;;;;;;;32.50;28.50;;;;;26.45;53.36;101539.09;5036242;28;46150;-40
2023/09/13 10:43:43;;;;;;;;;21.40;21.40;;;;;26.79;52.24;101498.44;5035629;28;45397;-39
2023/09/13 10:46:10;;;;;;;;;19.20;18.80;;;;;27.79;50.44;101546.66;5036296;28;45399;-39
2023/09/13 10:48:38;;;;;;;;;20.40;18.60;;;;;28.56;49.79;101543.50;5036744;28;45405;-46
2023/09/13 10:51:04;;;;;;;;;18.60;16.40;;;;;28.85;47.58;101530.56;5035910;28;45652;-39
2023/09/13 10:53:30;;;;;;;;;17.20;14.80;;;;;29.47;46.79;101543.31;5036194;28;45387;-42
2023/09/13 10:55:56;;;;;;;;;17.60;16.20;;;;;29.63;46.48;101536.97;5036131;28;45435;-47
2023/09/13 10:58:22;;;;;;;;;19.50;16.00;;;;;29.54;46.02;101528.34;5033588;28;45516;-42
2023/09/13 11:00:54;;;;;;;;;24.40;17.40;;;;;29.51;48.77;101542.53;5036097;28;46317;-40
2023/09/13 11:03:20;;;;;;;;;17.00;15.40;;;;;29.33;45.86;101540.09;5036027;28;45446;-38
2023/09/13 11:05:50;;;;;;;;;19.80;13.40;;;;;29.04;47.13;101539.41;5036037;28;45320;-44
2023/09/13 11:08:32;;;;;;;;;14.00;14.00;;;;;28.61;47.47;101543.56;5036373;28;45400;-39